Time;durP1;ratioP1;P1;durP2;ratioP2;P2;SDS_P1;SDS_P2;PMS_P1;PMS_P2;Temp;Humidity;BMP_temperature;BMP_pressure;BME280_temperature;BME280_humidity;BME280_pressure;Samples;Min_cycle;Max_cycle;Signal;HPM_P1;HPM_P2
2023/07/24 00:02:21;;;;;;;7.73;2.60;;;;;;;-145.18;100.00;46638.91;5070431;28;20103;-63
2023/07/24 00:04:47;;;;;;;4.23;2.70;;;;;;;-145.18;100.00;46636.94;5070180;28;20468;-63
2023/07/24 00:07:12;;;;;;;3.60;2.47;;;;;;;-145.18;100.00;46636.94;5070224;28;20040;-63
2023/07/24 00:09:38;;;;;;;7.83;3.43;;;;;;;-145.18;100.00;46636.94;5069452;28;20112;-63
2023/07/24 00:12:03;;;;;;;4.50;3.37;;;;;;;-145.18;100.00;46635.00;5070120;28;20032;-63
2023/07/24 00:14:29;;;;;;;3.53;2.90;;;;;;;-145.18;100.00;46638.91;5068398;28;20407;-63
2023/07/24 00:16:54;;;;;;;3.97;2.93;;;;;;;-145.18;100.00;46636.94;5070489;28;20032;-63
2023/07/24 00:19:19;;;;;;;5.10;2.77;;;;;;;-145.18;100.00;46633.06;5069956;28;20090;-63
2023/07/24 00:21:45;;;;;;;3.53;2.40;;;;;;;-145.18;100.00;46638.91;5070354;28;20039;-62
2023/07/24 00:24:10;;;;;;;4.10;3.10;;;;;;;-145.18;100.00;46640.88;5070126;28;20036;-63
2023/07/24 00:26:36;;;;;;;3.87;2.50;;;;;;;-145.18;100.00;46638.91;5068491;28;20033;-62
2023/07/24 00:29:01;;;;;;;2.33;2.07;;;;;;;-145.18;100.00;46636.94;5069601;28;20107;-63
2023/07/24 00:31:27;;;;;;;3.30;1.87;;;;;;;-145.18;100.00;46638.91;5069882;28;20056;-63
2023/07/24 00:33:52;;;;;;;5.07;2.40;;;;;;;-145.18;100.00;46638.91;5070203;28;20064;-63
2023/07/24 00:36:18;;;;;;;2.93;1.90;;;;;;;-145.18;100.00;46636.94;5069945;28;20135;-63
2023/07/24 00:38:43;;;;;;;2.50;1.80;;;;;;;-145.18;100.00;46636.94;5069550;28;20039;-63
2023/07/24 00:41:08;;;;;;;3.17;1.97;;;;;;;-145.18;100.00;46638.91;5070500;28;20029;-62
2023/07/24 00:43:34;;;;;;;3.40;2.30;;;;;;;-145.18;100.00;46638.91;5069801;28;20422;-63
2023/07/24 00:45:59;;;;;;;3.83;2.17;;;;;;;-145.18;100.00;46635.00;5069509;28;20497;-63
2023/07/24 00:48:25;;;;;;;3.53;1.87;;;;;;;-145.18;100.00;46636.94;5069147;28;20103;-63
2023/07/24 00:50:50;;;;;;;7.80;2.20;;;;;;;-145.18;100.00;46638.91;5069795;28;20052;-63
2023/07/24 00:53:17;;;;;;;3.00;1.90;;;;;;;-145.18;100.00;46636.94;5069598;28;20071;-63
2023/07/24 00:55:43;;;;;;;3.90;2.30;;;;;;;-145.18;100.00;46638.91;5069824;28;20036;-71
2023/07/24 00:58:11;;;;;;;3.90;2.20;;;;;;;-145.18;100.00;46636.94;5069489;28;20029;-71
2023/07/24 01:00:38;;;;;;;2.47;2.00;;;;;;;-145.18;100.00;46638.91;5070001;28;20107;-71
2023/07/24 01:03:04;;;;;;;2.83;2.07;;;;;;;-145.18;100.00;46635.00;5068062;28;20040;-71
2023/07/24 01:05:30;;;;;;;3.57;2.10;;;;;;;-145.18;100.00;46640.88;5069782;28;20590;-71
2023/07/24 01:07:55;;;;;;;4.73;1.63;;;;;;;-145.18;100.00;46636.94;5069848;28;20024;-72
2023/07/24 01:10:21;;;;;;;5.07;2.00;;;;;;;-145.18;100.00;46636.94;5072080;28;20036;-71
2023/07/24 01:13:08;;;;;;;2.90;2.10;;;;;;;-145.18;100.00;46635.00;5073358;28;20031;-71
2023/07/24 01:15:56;;;;;;;3.10;1.93;;;;;;;-145.18;100.00;46636.94;5073083;28;20539;-72
2023/07/24 01:18:24;;;;;;;3.20;2.27;;;;;;;-145.18;100.00;46635.00;5073191;28;20476;-71
2023/07/24 01:20:58;;;;;;;3.43;1.90;;;;;;;-145.18;100.00;46640.88;5073450;28;20029;-71
2023/07/24 01:24:05;;;;;;;4.40;2.20;;;;;;;-145.18;100.00;46636.94;5073280;28;20039;-71
2023/07/24 01:26:30;;;;;;;3.50;1.40;;;;;;;-145.18;100.00;46646.72;5053639;28;20046;-71
2023/07/24 01:28:56;;;;;;;3.50;2.10;;;;;;;-145.18;100.00;46644.78;5072627;28;20032;-71
2023/07/24 01:31:21;;;;;;;4.60;1.77;;;;;;;-145.18;100.00;46640.88;5072792;28;20057;-72
2023/07/24 01:33:47;;;;;;;2.57;1.97;;;;;;;-145.18;100.00;46635.00;5072534;28;20025;-72
2023/07/24 01:36:14;;;;;;;3.47;1.90;;;;;;;-145.18;100.00;46640.88;5071637;28;20033;-71
2023/07/24 01:38:40;;;;;;;3.83;2.23;;;;;;;-145.18;100.00;46638.91;5073033;28;20098;-71
2023/07/24 01:41:06;;;;;;;3.43;2.10;;;;;;;-145.18;100.00;46640.88;5063834;28;20583;-71
2023/07/24 01:43:32;;;;;;;3.83;2.20;;;;;;;-145.18;100.00;46638.91;5068042;28;20472;-72
2023/07/24 01:45:58;;;;;;;4.20;2.17;;;;;;;-145.18;100.00;46642.81;5071609;28;20035;-71
2023/07/24 01:48:23;;;;;;;4.83;1.93;;;;;;;-145.18;100.00;46642.81;5072687;28;20028;-71
2023/07/24 01:50:48;;;;;;;2.73;1.80;;;;;;;-145.18;100.00;46640.88;5072420;28;20033;-72
2023/07/24 01:53:14;;;;;;;3.07;2.07;;;;;;;-145.18;100.00;46640.88;5071212;28;20048;-71
2023/07/24 01:55:39;;;;;;;5.30;1.93;;;;;;;-145.18;100.00;46644.78;5072787;28;20028;-71
2023/07/24 01:58:05;;;;;;;3.93;2.23;;;;;;;-145.18;100.00;46644.78;5072188;28;20036;-71
2023/07/24 02:00:30;;;;;;;2.70;1.70;;;;;;;-145.18;100.00;46642.81;5072216;28;20025;-71
2023/07/24 02:02:56;;;;;;;2.87;1.97;;;;;;;-145.18;100.00;46638.91;5072158;28;20032;-71
2023/07/24 02:05:21;;;;;;;2.87;1.87;;;;;;;-145.18;100.00;46640.88;5072331;28;20033;-63
2023/07/24 02:07:47;;;;;;;5.43;2.43;;;;;;;-145.18;100.00;46640.88;5071936;28;20025;-63
2023/07/24 02:10:12;;;;;;;3.33;2.13;;;;;;;-145.18;100.00;46640.88;5072087;28;20118;-63
2023/07/24 02:12:37;;;;;;;3.50;2.00;;;;;;;-145.18;100.00;46642.81;5072221;28;20060;-63
2023/07/24 02:15:03;;;;;;;4.43;2.70;;;;;;;-145.18;100.00;46644.78;5072131;28;20070;-63
2023/07/24 02:17:28;;;;;;;3.63;2.30;;;;;;;-145.18;100.00;46636.94;5071977;28;20123;-63
2023/07/24 02:19:54;;;;;;;4.13;2.50;;;;;;;-145.18;100.00;46644.78;5071898;28;20025;-63
2023/07/24 02:22:19;;;;;;;4.67;2.50;;;;;;;-145.18;100.00;46644.78;5070904;28;20025;-63
2023/07/24 02:24:45;;;;;;;5.57;2.57;;;;;;;-145.18;100.00;46644.78;5072126;28;20039;-63
2023/07/24 02:27:24;;;;;;;4.60;2.10;;;;;;;-145.18;100.00;46642.81;5071761;28;20033;-63
2023/07/24 02:29:49;;;;;;;4.40;2.50;;;;;;;-145.18;100.00;46642.81;5071598;28;20504;-63
2023/07/24 02:32:14;;;;;;;3.80;2.03;;;;;;;-145.18;100.00;46640.88;5071820;28;20081;-62
2023/07/24 02:34:40;;;;;;;5.13;2.40;;;;;;;-145.18;100.00;46640.88;5071912;28;20447;-63
2023/07/24 02:37:05;;;;;;;5.13;2.23;;;;;;;-145.18;100.00;46640.88;5071679;28;20020;-63
2023/07/24 02:39:31;;;;;;;6.20;2.80;;;;;;;-145.18;100.00;46642.81;5071803;28;20028;-63
2023/07/24 02:41:56;;;;;;;4.60;2.93;;;;;;;-145.18;100.00;46646.72;5071478;28;20032;-63
2023/07/24 02:44:21;;;;;;;3.50;2.30;;;;;;;-145.18;100.00;46644.78;5071650;28;20039;-63
2023/07/24 02:46:47;;;;;;;3.73;2.27;;;;;;;-145.18;100.00;46644.78;5071580;28;20404;-63
2023/07/24 02:49:12;;;;;;;5.27;2.70;;;;;;;-145.18;100.00;46646.72;5071270;28;20107;-63
2023/07/24 02:51:37;;;;;;;6.07;2.40;;;;;;;-145.18;100.00;46640.88;5071383;28;20043;-63
2023/07/24 02:54:03;;;;;;;5.97;2.80;;;;;;;-145.18;100.00;46642.81;5071558;28;20453;-63
2023/07/24 02:56:28;;;;;;;5.73;3.03;;;;;;;-145.18;100.00;46644.78;5071344;28;20067;-63
2023/07/24 02:58:54;;;;;;;6.10;2.97;;;;;;;-145.18;100.00;46644.78;5069430;28;20537;-63
2023/07/24 03:01:19;;;;;;;4.90;2.93;;;;;;;-145.18;100.00;46644.78;5070849;28;20028;-63
2023/07/24 03:03:44;;;;;;;4.43;2.70;;;;;;;-145.18;100.00;46644.78;5069612;28;20035;-63
2023/07/24 03:06:10;;;;;;;6.23;2.90;;;;;;;-145.18;100.00;46644.78;5071013;28;20736;-63
2023/07/24 03:08:35;;;;;;;5.73;3.67;;;;;;;-145.18;100.00;46640.88;5071029;28;20024;-63
2023/07/24 03:11:04;;;;;;;5.53;3.00;;;;;;;-145.18;100.00;46638.91;5071090;28;20107;-63
2023/07/24 03:13:30;;;;;;;5.17;3.47;;;;;;;-145.18;100.00;46644.78;5071195;28;20024;-63
2023/07/24 03:15:57;;;;;;;4.73;3.60;;;;;;;-145.18;100.00;46644.78;5069596;28;20487;-63
2023/07/24 03:18:22;;;;;;;8.80;4.27;;;;;;;-145.18;100.00;46644.78;5070867;28;20035;-62
2023/07/24 03:20:48;;;;;;;6.27;4.10;;;;;;;-145.18;100.00;46642.81;5070602;28;20032;-63
2023/07/24 03:23:14;;;;;;;6.50;3.60;;;;;;;-145.18;100.00;46644.78;5070894;28;20023;-63
2023/07/24 03:25:39;;;;;;;4.63;3.10;;;;;;;-145.18;100.00;46646.72;5070707;28;20040;-63
2023/07/24 03:28:05;;;;;;;5.23;3.57;;;;;;;-145.18;100.00;46640.88;5070433;28;20035;-63
2023/07/24 03:30:30;;;;;;;6.70;4.00;;;;;;;-145.18;100.00;46644.78;5070564;28;20098;-63
2023/07/24 03:32:57;;;;;;;6.97;4.00;;;;;;;-145.18;100.00;46648.69;5070091;28;20052;-63
2023/07/24 03:35:22;;;;;;;5.80;3.50;;;;;;;-145.18;100.00;46648.69;5069385;28;20083;-63
2023/07/24 03:37:47;;;;;;;6.03;3.57;;;;;;;-145.18;100.00;46646.72;5069137;28;20067;-63
2023/07/24 03:40:13;;;;;;;7.57;4.27;;;;;;;-145.18;100.00;46644.78;5070216;28;20033;-62
2023/07/24 03:42:39;;;;;;;5.63;3.80;;;;;;;-145.18;100.00;46646.72;5070620;28;20036;-63
2023/07/24 03:45:05;;;;;;;7.10;4.20;;;;;;;-145.18;100.00;46642.81;5070321;28;20112;-62
2023/07/24 03:47:30;;;;;;;5.53;4.20;;;;;;;-145.18;100.00;46648.69;5070587;28;20391;-63
2023/07/24 03:49:56;;;;;;;6.47;3.93;;;;;;;-145.18;100.00;46644.78;5070526;28;20028;-62
2023/07/24 03:52:21;;;;;;;7.03;4.00;;;;;;;-145.18;100.00;46646.72;5070456;28;20051;-63
2023/07/24 03:54:47;;;;;;;5.70;3.73;;;;;;;-145.18;100.00;46640.88;5070068;28;20689;-63
2023/07/24 03:57:12;;;;;;;8.10;4.00;;;;;;;-145.18;100.00;46642.81;5070199;28;20036;-62
2023/07/24 03:59:37;;;;;;;6.77;3.90;;;;;;;-145.18;100.00;46648.69;5070033;28;20028;-63
2023/07/24 04:02:03;;;;;;;7.83;4.37;;;;;;;-145.18;100.00;46644.78;5070448;28;20111;-62
2023/07/24 04:04:29;;;;;;;8.73;3.87;;;;;;;-145.18;100.00;46648.69;5070334;28;20480;-63
2023/07/24 04:06:54;;;;;;;8.77;4.27;;;;;;;-145.18;100.00;46646.72;5070274;28;20037;-62
2023/07/24 04:09:19;;;;;;;6.60;3.90;;;;;;;-145.18;100.00;46648.69;5070402;28;20041;-63
2023/07/24 04:11:45;;;;;;;8.10;4.20;;;;;;;-145.18;100.00;46648.69;5070152;28;20446;-63
2023/07/24 04:14:10;;;;;;;5.77;4.20;;;;;;;-145.18;100.00;46640.88;5069169;28;20032;-63
2023/07/24 04:16:36;;;;;;;6.63;4.37;;;;;;;-145.18;100.00;46650.63;5070185;28;20020;-62
2023/07/24 04:19:02;;;;;;;9.17;4.63;;;;;;;-145.18;100.00;46644.78;5069782;28;20032;-62
2023/07/24 04:21:27;;;;;;;8.80;5.03;;;;;;;-145.18;100.00;46646.72;5070166;28;20036;-63
2023/07/24 04:23:53;;;;;;;7.17;4.83;;;;;;;-145.18;100.00;46646.72;5069844;28;20511;-62
2023/07/24 04:26:18;;;;;;;9.50;5.17;;;;;;;-145.18;100.00;46644.78;5070065;28;20068;-62
2023/07/24 04:28:43;;;;;;;10.17;5.60;;;;;;;-145.18;100.00;46646.72;5069947;28;20103;-62
2023/07/24 04:31:09;;;;;;;9.27;4.60;;;;;;;-145.18;100.00;46644.78;5069995;28;20509;-62
2023/07/24 04:33:34;;;;;;;12.53;5.50;;;;;;;-145.18;100.00;46648.69;5070071;28;20097;-62
2023/07/24 04:35:59;;;;;;;9.60;5.27;;;;;;;-145.18;100.00;46652.59;5070182;28;20111;-62
2023/07/24 04:38:25;;;;;;;11.83;5.60;;;;;;;-145.18;100.00;46650.63;5069672;28;20025;-62
2023/07/24 04:40:50;;;;;;;8.70;5.33;;;;;;;-145.18;100.00;46654.53;5070174;28;20047;-63
2023/07/24 04:43:16;;;;;;;7.50;4.83;;;;;;;-145.18;100.00;46654.53;5070062;28;20029;-62
2023/07/24 04:45:41;;;;;;;8.70;5.00;;;;;;;-145.18;100.00;46648.69;5073093;28;20040;-62
2023/07/24 04:48:06;;;;;;;9.03;5.40;;;;;;;-145.18;100.00;46650.63;5073638;28;20032;-62
2023/07/24 04:50:32;;;;;;;8.60;5.33;;;;;;;-145.18;100.00;46654.53;5074007;28;20024;-62
2023/07/24 04:52:58;;;;;;;10.93;4.77;;;;;;;-145.18;100.00;46652.59;5073781;28;20020;-62
2023/07/24 04:55:24;;;;;;;9.27;4.60;;;;;;;-145.18;100.00;46646.72;5073580;28;20476;-62
2023/07/24 04:57:50;;;;;;;12.40;6.67;;;;;;;-145.18;100.00;46652.59;5073299;28;20019;-62
2023/07/24 05:00:15;;;;;;;8.67;5.30;;;;;;;-145.18;100.00;46650.63;5072380;28;20036;-62
2023/07/24 05:02:41;;;;;;;10.00;5.17;;;;;;;-145.18;100.00;46652.59;5055264;28;20032;-62
2023/07/24 05:05:06;;;;;;;13.33;5.43;;;;;;;-145.18;100.00;46652.59;5073956;28;20104;-62
2023/07/24 05:07:32;;;;;;;9.43;5.70;;;;;;;-145.18;100.00;46650.63;5072810;28;20435;-62
2023/07/24 05:09:57;;;;;;;8.63;5.13;;;;;;;-145.18;100.00;46654.53;5073614;28;20111;-62
2023/07/24 05:12:23;;;;;;;8.53;5.27;;;;;;;-145.18;100.00;46654.53;5071878;28;20036;-62
2023/07/24 05:14:48;;;;;;;10.37;5.13;;;;;;;-145.18;100.00;46660.41;5073190;28;20491;-62
2023/07/24 05:17:13;;;;;;;9.67;4.57;;;;;;;-145.18;100.00;46648.69;5073424;28;20036;-63
2023/07/24 05:19:39;;;;;;;8.50;5.27;;;;;;;-145.18;100.00;46652.59;5073350;28;20036;-62
2023/07/24 05:22:05;;;;;;;9.00;4.83;;;;;;;-145.18;100.00;46656.50;5073313;28;20417;-62
2023/07/24 05:24:30;;;;;;;9.17;4.70;;;;;;;-145.18;100.00;46652.59;5073229;28;20035;-63
2023/07/24 05:26:55;;;;;;;8.40;4.80;;;;;;;-145.18;100.00;46648.69;5072810;28;20491;-62
2023/07/24 05:29:21;;;;;;;9.93;4.70;;;;;;;-145.18;100.00;46650.63;5072967;28;20031;-62
2023/07/24 05:31:47;;;;;;;11.17;5.63;;;;;;;-145.18;100.00;46646.72;5072494;28;20048;-62
2023/07/24 05:34:12;;;;;;;8.70;5.53;;;;;;;-145.18;100.00;46654.53;5073171;28;20165;-63
2023/07/24 05:36:38;;;;;;;9.13;5.70;;;;;;;-145.18;100.00;46652.59;5072778;28;20400;-62
2023/07/24 05:39:03;;;;;;;11.83;6.80;;;;;;;-145.18;100.00;46650.63;5072882;28;20029;-62
2023/07/24 05:41:28;;;;;;;9.77;6.43;;;;;;;-145.18;100.00;46652.59;5072953;28;20032;-62
2023/07/24 05:43:55;;;;;;;10.07;6.27;;;;;;;-145.18;100.00;46656.50;5072737;28;20025;-62
2023/07/24 05:46:20;;;;;;;10.43;6.03;;;;;;;-145.18;100.00;46652.59;5072774;28;20032;-63
2023/07/24 05:48:46;;;;;;;12.13;7.23;;;;;;;-145.18;100.00;46646.72;5072539;28;20526;-63
2023/07/24 05:51:11;;;;;;;13.63;6.90;;;;;;;-145.18;100.00;46656.50;5072359;28;20033;-62
2023/07/24 05:53:36;;;;;;;15.30;7.07;;;;;;;-145.18;100.00;46656.50;5072994;28;20044;-63
2023/07/24 05:56:03;;;;;;;10.97;6.50;;;;;;;-145.18;100.00;46654.53;5072187;28;20483;-62
2023/07/24 05:58:28;;;;;;;10.50;7.13;;;;;;;-145.18;100.00;46656.50;5072597;28;20396;-62
2023/07/24 06:00:55;;;;;;;11.87;7.57;;;;;;;-145.18;100.00;46650.63;5072473;28;20484;-62
2023/07/24 06:03:21;;;;;;;15.80;8.43;;;;;;;-145.18;100.00;46658.44;5072362;28;20503;-62
2023/07/24 06:05:51;;;;;;;13.00;8.00;;;;;;;-145.18;100.00;46662.34;5071747;28;20028;-62
2023/07/24 06:08:16;;;;;;;12.70;8.13;;;;;;;-145.18;100.00;46652.59;5072412;28;20032;-62
2023/07/24 06:10:42;;;;;;;16.00;8.37;;;;;;;-145.18;100.00;46658.44;5072091;28;20166;-62
2023/07/24 06:13:07;;;;;;;12.70;8.27;;;;;;;-145.18;100.00;46656.50;5072616;28;20033;-62
2023/07/24 06:15:32;;;;;;;13.73;9.07;;;;;;;-145.18;100.00;46658.44;5072330;28;20488;-62
2023/07/24 06:17:58;;;;;;;13.83;9.10;;;;;;;-145.18;100.00;46652.59;5071058;28;20017;-62
2023/07/24 06:20:23;;;;;;;17.80;8.97;;;;;;;-145.18;100.00;46658.44;5072010;28;20029;-62
2023/07/24 06:22:48;;;;;;;13.60;8.27;;;;;;;-145.18;100.00;46656.50;5072285;28;20449;-63
2023/07/24 06:25:14;;;;;;;11.80;7.30;;;;;;;-145.18;100.00;46656.50;5071760;28;20028;-62
2023/07/24 06:27:39;;;;;;;14.07;8.17;;;;;;;-145.18;100.00;46658.44;5072026;28;20108;-62
2023/07/24 06:30:05;;;;;;;12.47;8.07;;;;;;;-145.18;100.00;46654.53;5071366;28;20098;-62
2023/07/24 06:32:31;;;;;;;11.87;7.87;;;;;;;-145.18;100.00;46652.59;5070223;28;20123;-62
2023/07/24 06:34:57;;;;;;;14.93;8.07;;;;;;;-145.18;100.00;46656.50;5071842;28;20107;-62
2023/07/24 06:37:22;;;;;;;10.60;7.43;;;;;;;-145.18;100.00;46656.50;5071489;28;20428;-62
2023/07/24 06:39:47;;;;;;;12.60;7.17;;;;;;;-145.18;100.00;46656.50;5071495;28;20059;-62
2023/07/24 06:42:13;;;;;;;13.73;7.57;;;;;;;-145.18;100.00;46660.41;5071617;28;20078;-62
2023/07/24 06:44:38;;;;;;;13.63;7.53;;;;;;;-145.18;100.00;46662.34;5071147;28;20070;-63
2023/07/24 06:47:03;;;;;;;10.73;7.17;;;;;;;-145.18;100.00;46668.22;5070226;28;20024;-62
2023/07/24 06:49:29;;;;;;;10.33;7.23;;;;;;;-145.18;100.00;46664.31;5071735;28;20052;-63
2023/07/24 06:51:54;;;;;;;8.70;6.63;;;;;;;-145.18;100.00;46660.41;5070341;28;20074;-63
2023/07/24 06:54:19;;;;;;;11.97;7.30;;;;;;;-145.18;100.00;46670.16;5071512;28;20037;-62
2023/07/24 06:56:45;;;;;;;11.43;6.87;;;;;;;-145.18;100.00;46668.22;5071842;28;20451;-62
2023/07/24 06:59:10;;;;;;;11.90;7.67;;;;;;;-145.18;100.00;46666.25;5071428;28;20033;-62
2023/07/24 07:01:35;;;;;;;13.27;7.03;;;;;;;-145.18;100.00;46662.34;5072174;28;20035;-62
2023/07/24 07:04:01;;;;;;;12.77;7.03;;;;;;;-145.18;100.00;46662.34;5070505;28;20388;-62
2023/07/24 07:06:26;;;;;;;12.00;7.60;;;;;;;-145.18;100.00;46654.53;5070838;28;20431;-62
2023/07/24 07:08:52;;;;;;;15.73;8.23;;;;;;;-145.18;100.00;46652.59;5070390;28;20029;-62
2023/07/24 07:11:17;;;;;;;15.30;8.90;;;;;;;-145.18;100.00;46650.63;5071566;28;20021;-62
2023/07/24 07:13:42;;;;;;;10.47;7.70;;;;;;;-145.18;100.00;46652.59;5070905;28;20514;-62
2023/07/24 07:16:08;;;;;;;12.73;8.47;;;;;;;-145.18;100.00;46650.63;5069706;28;20020;-63
2023/07/24 07:18:33;;;;;;;13.33;8.87;;;;;;;-145.18;100.00;46644.78;5070986;28;20051;-62
2023/07/24 07:20:58;;;;;;;14.73;9.30;;;;;;;-145.18;100.00;46650.63;5069622;28;20049;-62
2023/07/24 07:23:24;;;;;;;15.80;9.43;;;;;;;-145.18;100.00;46652.59;5070706;28;20587;-63
2023/07/24 07:25:51;;;;;;;14.07;9.20;;;;;;;-145.18;100.00;46644.78;5070636;28;20036;-62
2023/07/24 07:28:17;;;;;;;13.90;9.80;;;;;;;-145.18;100.00;46646.72;5070973;28;20043;-62
2023/07/24 07:30:43;;;;;;;14.10;9.13;;;;;;;-145.18;100.00;46648.69;5070564;28;20048;-62
2023/07/24 07:33:08;;;;;;;13.27;9.37;;;;;;;-145.18;100.00;46646.72;5070865;28;20032;-62
2023/07/24 07:35:35;;;;;;;12.37;8.17;;;;;;;-145.18;100.00;46648.69;5070759;28;20033;-62
2023/07/24 07:38:00;;;;;;;12.60;8.53;;;;;;;-145.18;100.00;46648.69;5069092;28;20396;-63
2023/07/24 07:40:29;;;;;;;15.83;9.60;;;;;;;-145.18;100.00;46654.53;5070720;28;20047;-62
2023/07/24 07:42:55;;;;;;;14.17;9.10;;;;;;;-145.18;100.00;46652.59;5070286;28;20069;-62
2023/07/24 07:45:21;;;;;;;17.00;9.83;;;;;;;-145.18;100.00;46652.59;5069346;28;20067;-62
2023/07/24 07:47:46;;;;;;;12.90;8.70;;;;;;;-145.18;100.00;46656.50;5070479;28;20035;-62
2023/07/24 07:50:12;;;;;;;15.57;7.93;;;;;;;-145.18;100.00;46662.34;5069145;28;20037;-62
2023/07/24 07:52:38;;;;;;;10.57;7.80;;;;;;;-145.18;100.00;46662.34;5070515;28;20511;-62
2023/07/24 07:55:06;;;;;;;13.30;8.10;;;;;;;-145.18;100.00;46662.34;5070541;28;20099;-73
2023/07/24 07:57:31;;;;;;;11.87;7.77;;;;;;;-145.18;100.00;46664.31;5068867;28;20039;-73
2023/07/24 07:59:57;;;;;;;14.13;8.17;;;;;;;-145.18;100.00;46670.16;5070757;28;20024;-73
2023/07/24 08:02:22;;;;;;;12.87;7.77;;;;;;;-145.18;100.00;46672.13;5070375;28;20476;-73
2023/07/24 08:04:47;;;;;;;10.23;7.97;;;;;;;-145.18;100.00;46670.16;5070396;28;20108;-73
2023/07/24 08:07:13;;;;;;;11.53;7.60;;;;;;;-145.18;100.00;46672.13;5070345;28;20115;-73
2023/07/24 08:09:38;;;;;;;12.37;8.40;;;;;;;-145.18;100.00;46676.03;5068904;28;20408;-73
2023/07/24 08:12:04;;;;;;;11.03;8.00;;;;;;;-145.18;100.00;46672.13;5070072;28;20068;-73
2023/07/24 08:14:30;;;;;;;10.77;7.77;;;;;;;-145.18;100.00;46676.03;5070264;28;20618;-73
2023/07/24 08:16:56;;;;;;;14.20;7.07;;;;;;;-145.18;100.00;46677.97;5070400;28;20032;-72
2023/07/24 08:19:21;;;;;;;12.13;7.60;;;;;;;-145.18;100.00;46677.97;5073026;28;20487;-72
2023/07/24 08:21:47;;;;;;;11.97;6.93;;;;;;;-145.18;100.00;46681.88;5074316;28;20032;-72
2023/07/24 08:24:12;;;;;;;11.03;6.67;;;;;;;-145.18;100.00;46677.97;5074280;28;20661;-72
2023/07/24 08:26:38;;;;;;;13.23;7.27;;;;;;;-145.18;100.00;46681.88;5074395;28;20039;-72
2023/07/24 08:29:04;;;;;;;12.83;6.60;;;;;;;-145.18;100.00;46685.78;5074376;27;20071;-72
2023/07/24 08:31:30;;;;;;;8.30;5.50;;;;;;;-145.18;100.00;46685.78;5073926;28;20171;-72
2023/07/24 08:33:55;;;;;;;12.70;5.47;;;;;;;-145.18;100.00;46691.66;5074579;28;20028;-72
2023/07/24 08:36:20;;;;;;;10.27;5.77;;;;;;;-145.18;100.00;46695.56;5074238;28;20089;-72
2023/07/24 08:38:47;;;;;;;11.97;6.13;;;;;;;-145.18;100.00;46695.56;5073936;28;20533;-72
2023/07/24 08:41:14;;;;;;;12.10;5.70;;;;;;;-145.18;100.00;46693.59;5074011;28;20040;-72
2023/07/24 08:43:42;;;;;;;7.60;5.30;;;;;;;-145.18;100.00;46695.56;5074123;28;20040;-72
2023/07/24 08:46:09;;;;;;;10.40;5.63;;;;;;;-145.18;100.00;46693.59;5073933;28;20107;-72
2023/07/24 08:48:39;;;;;;;11.63;5.33;;;;;;;-145.18;100.00;46695.56;5072606;28;20586;-72
2023/07/24 08:51:06;;;;;;;11.23;5.93;;;;;;;-145.18;100.00;46693.59;5073953;28;20035;-72
2023/07/24 08:53:41;;;;;;;8.20;5.10;;;;;;;-145.18;100.00;46693.59;5074072;28;20066;-72
2023/07/24 08:56:08;;;;;;;7.17;4.93;;;;;;;-145.18;100.00;46695.56;5073496;28;20459;-72
2023/07/24 08:58:34;;;;;;;7.30;5.20;;;;;;;-145.18;100.00;46691.66;5073837;28;20040;-71
2023/07/24 09:01:01;;;;;;;7.53;4.90;;;;;;;-145.18;100.00;46691.66;5073443;28;20020;-72
2023/07/24 09:03:28;;;;;;;10.27;4.93;;;;;;;-145.18;100.00;46691.66;5073669;28;20039;-72
2023/07/24 09:05:53;;;;;;;6.63;4.83;;;;;;;-145.18;100.00;46687.75;5073476;28;20157;-71
2023/07/24 09:08:32;;;;;;;10.53;5.17;;;;;;;-145.18;100.00;46691.66;5073765;28;20036;-70
2023/07/24 09:11:01;;;;;;;13.03;4.80;;;;;;;-145.18;100.00;46695.56;5073686;28;20043;-71
2023/07/24 09:13:28;;;;;;;7.57;4.30;;;;;;;-145.18;100.00;46695.56;5073363;28;20059;-71
2023/07/24 09:15:53;;;;;;;6.57;3.97;;;;;;;-145.18;100.00;46693.59;5073128;28;20028;-71
2023/07/24 09:18:19;;;;;;;9.07;4.30;;;;;;;-145.18;100.00;46697.50;5073585;28;20025;-71
2023/07/24 09:20:45;;;;;;;6.10;4.20;;;;;;;-145.18;100.00;46693.59;5072994;28;20032;-71
2023/07/24 09:23:12;;;;;;;6.40;4.27;;;;;;;-145.18;100.00;46697.50;5073140;28;20025;-71
2023/07/24 09:25:40;;;;;;;6.63;4.40;;;;;;;-145.18;100.00;46695.56;5073191;28;20025;-71
2023/07/24 09:28:13;;;;;;;8.13;4.40;;;;;;;-145.18;100.00;46693.59;5072875;28;20119;-71
2023/07/24 09:30:40;;;;;;;6.67;4.57;;;;;;;-145.18;100.00;46695.56;5052522;28;20175;-71
2023/07/24 09:33:06;;;;;;;7.77;4.50;;;;;;;-145.18;100.00;46695.56;5066800;28;20036;-71
2023/07/24 09:35:32;;;;;;;8.70;4.70;;;;;;;-145.18;100.00;46668.22;5071692;28;20518;-71
2023/07/24 09:38:08;;;;;;;6.03;4.53;;;;;;;-145.18;100.00;46652.59;5073047;28;20044;-71
2023/07/24 09:41:01;;;;;;;7.00;4.53;;;;;;;-145.18;100.00;46666.25;5072767;28;20469;-71
2023/07/24 09:43:27;;;;;;;8.00;5.07;;;;;;;-145.18;100.00;46685.78;5071504;28;20051;-71
2023/07/24 09:45:54;;;;;;;6.93;5.40;;;;;;;-145.18;100.00;46695.56;5072981;28;20120;-71
2023/07/24 09:48:23;;;;;;;7.07;5.97;;;;;;;-145.18;100.00;46697.50;5072598;28;20039;-71
2023/07/24 09:50:52;;;;;;;10.17;6.50;;;;;;;-145.18;100.00;46689.69;5072925;28;20040;-71
2023/07/24 09:53:38;;;;;;;10.73;6.40;;;;;;;-145.18;100.00;46683.84;5072897;28;20060;-71
2023/07/24 09:56:09;;;;;;;9.52;6.57;;;;;;;-145.18;100.00;46683.84;5072492;28;20048;-71
2023/07/24 09:58:36;;;;;;;13.47;6.33;;;;;;;-145.18;100.00;46681.88;5072509;28;20020;-71
2023/07/24 10:01:05;;;;;;;10.47;7.03;;;;;;;-145.18;100.00;46683.84;5072288;28;20112;-71
2023/07/24 10:03:33;;;;;;;14.07;6.23;;;;;;;-145.18;100.00;46679.94;5071523;28;20031;-71
2023/07/24 10:05:59;;;;;;;11.57;7.17;;;;;;;-145.18;100.00;46683.84;5072406;28;20035;-71
2023/07/24 10:08:26;;;;;;;10.07;6.60;;;;;;;-145.18;100.00;46681.88;5072646;28;20028;-71
2023/07/24 10:10:53;;;;;;;9.87;5.90;;;;;;;-145.18;100.00;46687.75;5072351;28;20020;-71
2023/07/24 10:13:20;;;;;;;10.53;5.30;;;;;;;-145.18;100.00;46689.69;5072547;28;20027;-71
2023/07/24 10:15:47;;;;;;;7.97;5.47;;;;;;;-145.18;100.00;46691.66;5059659;28;20017;-71
2023/07/24 10:18:16;;;;;;;8.70;5.70;;;;;;;-145.18;100.00;46695.56;5072230;28;20021;-71
2023/07/24 10:20:42;;;;;;;6.80;5.13;;;;;;;-145.18;100.00;46697.50;5072319;28;20050;-70
2023/07/24 10:23:09;;;;;;;9.23;5.07;;;;;;;-145.18;100.00;46691.66;5072443;28;20162;-71
2023/07/24 10:25:37;;;;;;;6.97;4.70;;;;;;;-145.18;100.00;46683.84;5072011;28;20032;-71
2023/07/24 10:28:07;;;;;;;6.40;4.57;;;;;;;-145.18;100.00;46676.03;5072223;28;20071;-71
2023/07/24 10:30:33;;;;;;;11.73;5.40;;;;;;;-145.18;100.00;46689.69;5071719;28;20103;-71
2023/07/24 10:33:08;;;;;;;7.97;5.27;;;;;;;-145.18;100.00;46689.69;5071870;28;20085;-70
2023/07/24 10:35:45;;;;;;;13.40;5.43;;;;;;;-145.18;100.00;46685.78;5059455;28;20020;-71
2023/07/24 10:38:14;;;;;;;8.17;4.77;;;;;;;-145.18;100.00;46662.34;5071816;28;20020;-71
2023/07/24 10:40:41;;;;;;;9.07;5.20;;;;;;;-145.18;100.00;46623.28;5071965;28;20029;-71
2023/07/24 10:43:12;;;;;;;7.77;4.83;;;;;;;-145.18;100.00;46629.13;5070839;28;20020;-71
2023/07/24 10:45:49;;;;;;;7.73;5.00;;;;;;;-145.18;100.00;46636.94;5071503;28;20158;-71
2023/07/24 10:48:16;;;;;;;9.40;5.03;;;;;;;-145.18;100.00;46664.31;5071408;28;20027;-71
2023/07/24 10:50:44;;;;;;;8.73;5.70;;;;;;;-145.18;100.00;46668.22;5071761;28;20043;-71
2023/07/24 10:53:20;;;;;;;9.17;5.47;;;;;;;-145.18;100.00;46672.13;5071632;28;20012;-71
2023/07/24 10:55:50;;;;;;;10.13;6.00;;;;;;;-145.18;100.00;46691.66;5071350;28;20099;-71
2023/07/24 10:58:16;;;;;;;6.60;5.07;;;;;;;-145.18;100.00;46697.50;5059410;28;20036;-71
2023/07/24 11:00:46;;;;;;;12.40;5.63;;;;;;;-145.18;100.00;46693.59;5071455;28;20024;-71
2023/07/24 11:03:12;;;;;;;9.20;6.03;;;;;;;-145.18;100.00;46697.50;5071241;28;20062;-71
2023/07/24 11:05:45;;;;;;;7.47;5.47;;;;;;;-145.18;100.00;46691.66;5071171;28;20033;-71